createdAt,value
2022-08-26T00:02:13.843Z,28.48
2022-08-26T00:04:46.548Z,28.48
2022-08-26T00:07:20.207Z,28.48
2022-08-26T00:09:50.025Z,28.37
2022-08-26T00:12:18.535Z,28.48
2022-08-26T00:14:57.517Z,28.48
2022-08-26T00:17:28.575Z,28.48
2022-08-26T00:20:02.278Z,28.49
2022-08-26T00:22:31.754Z,28.46
2022-08-26T00:25:08.959Z,28.44
2022-08-26T00:27:39.690Z,28.47
2022-08-26T00:30:15.017Z,28.47
2022-08-26T00:32:47.817Z,28.47
2022-08-26T00:35:16.282Z,28.49
2022-08-26T00:37:58.930Z,28.49
2022-08-26T00:40:37.421Z,28.47
2022-08-26T00:43:09.565Z,28.46
2022-08-26T00:45:50.086Z,28.48
2022-08-26T00:48:25.508Z,28.47
2022-08-26T00:51:05.677Z,28.47
2022-08-26T00:53:39.345Z,28.47
2022-08-26T00:56:21.753Z,28.47
2022-08-26T00:59:01.940Z,28.44
2022-08-26T01:01:39.920Z,28.48
2022-08-26T01:04:17.115Z,28.49
2022-08-26T01:06:52.418Z,28.42
2022-08-26T01:09:23.058Z,28.50
2022-08-26T01:12:05.003Z,28.50
2022-08-26T01:14:36.698Z,28.52
2022-08-26T01:17:14.841Z,28.54
2022-08-26T01:20:04.106Z,28.56
2022-08-26T01:22:57.758Z,28.56
2022-08-26T01:25:36.184Z,28.53
2022-08-26T01:28:14.839Z,28.59
2022-08-26T01:30:47.410Z,28.55
2022-08-26T01:33:40.015Z,28.59
2022-08-26T01:36:17.033Z,28.59
2022-08-26T01:38:50.865Z,28.53
2022-08-26T01:41:27.293Z,28.60
2022-08-26T01:44:04.877Z,28.52
2022-08-26T01:46:34.076Z,28.59
2022-08-26T01:49:06.843Z,28.59
2022-08-26T01:51:46.411Z,28.60
2022-08-26T01:54:18.075Z,28.61
2022-08-26T01:56:56.606Z,28.59
2022-08-26T01:59:28.638Z,28.57
2022-08-26T02:02:03.931Z,28.58
2022-08-26T02:04:37.456Z,28.53
2022-08-26T02:07:09.685Z,28.53
2022-08-26T02:09:41.417Z,28.50
2022-08-26T02:12:17.889Z,28.50
2022-08-26T02:14:56.185Z,28.48
2022-08-26T02:17:33.976Z,28.47
2022-08-26T02:20:14.805Z,28.47
2022-08-26T02:22:43.109Z,28.47
2022-08-26T02:25:25.103Z,28.46
2022-08-26T02:27:58.476Z,28.45
2022-08-26T02:30:34.645Z,28.45
2022-08-26T02:33:12.000Z,28.40
2022-08-26T02:35:49.074Z,28.47
2022-08-26T02:38:19.151Z,28.44
2022-08-26T02:40:51.427Z,28.43
2022-08-26T02:43:31.450Z,28.42
2022-08-26T02:46:05.241Z,28.43
2022-08-26T02:48:38.383Z,28.43
2022-08-26T02:51:13.344Z,28.42
2022-08-26T02:53:49.651Z,28.38
2022-08-26T02:56:23.484Z,28.41
2022-08-26T02:58:58.974Z,28.42
2022-08-26T03:01:39.612Z,28.41
2022-08-26T03:04:13.946Z,28.38
2022-08-26T03:06:53.060Z,28.38
2022-08-26T03:09:25.449Z,28.40
2022-08-26T03:11:58.935Z,28.39
2022-08-26T03:14:29.945Z,28.37
2022-08-26T03:17:05.908Z,28.34
2022-08-26T03:19:38.769Z,28.32
2022-08-26T03:22:12.042Z,28.35
2022-08-26T03:24:46.014Z,28.32
2022-08-26T03:27:16.830Z,28.35
2022-08-26T03:30:04.225Z,28.35
2022-08-26T03:32:34.939Z,28.33
2022-08-26T03:35:05.424Z,28.33
2022-08-26T03:37:36.156Z,28.34
2022-08-26T03:40:07.672Z,28.36
2022-08-26T03:42:39.385Z,28.33
2022-08-26T03:45:12.197Z,28.31
2022-08-26T03:47:42.794Z,28.34
2022-08-26T03:50:14.370Z,28.34
2022-08-26T03:52:43.995Z,28.35
2022-08-26T03:55:12.347Z,28.35
2022-08-26T03:57:43.998Z,28.30
2022-08-26T04:00:18.916Z,28.33
2022-08-26T04:02:51.139Z,28.31
2022-08-26T04:05:24.496Z,28.32
2022-08-26T04:07:54.180Z,28.32
2022-08-26T04:10:29.104Z,28.32
2022-08-26T04:13:09.446Z,28.31
2022-08-26T04:15:39.302Z,28.33
2022-08-26T04:18:15.154Z,28.29
2022-08-26T04:20:47.424Z,28.31
2022-08-26T04:23:17.297Z,28.32
2022-08-26T04:25:44.817Z,28.32
2022-08-26T04:28:14.883Z,28.31
2022-08-26T04:30:49.580Z,28.29
2022-08-26T04:33:32.549Z,28.29
2022-08-26T04:36:08.102Z,28.31
2022-08-26T04:38:41.765Z,28.31
2022-08-26T04:41:14.922Z,28.33
2022-08-26T04:43:47.508Z,28.30
2022-08-26T04:46:24.602Z,28.25
2022-08-26T04:48:57.071Z,28.26
2022-08-26T04:51:29.356Z,28.28
2022-08-26T04:54:02.710Z,28.28
2022-08-26T04:56:42.340Z,28.28
2022-08-26T04:59:18.150Z,28.28
2022-08-26T05:01:56.384Z,28.30
2022-08-26T05:04:28.111Z,28.30
2022-08-26T05:07:02.322Z,28.28
2022-08-26T05:09:30.732Z,28.20
2022-08-26T05:12:05.395Z,28.28
2022-08-26T05:14:42.146Z,28.31
2022-08-26T05:17:18.750Z,28.31
2022-08-26T05:19:51.367Z,28.30
2022-08-26T05:22:24.503Z,28.27
2022-08-26T05:24:52.733Z,28.29
2022-08-26T05:27:28.656Z,28.32
2022-08-26T05:30:06.714Z,28.34
2022-08-26T05:32:37.191Z,28.32
2022-08-26T05:35:08.857Z,28.32
2022-08-26T05:37:38.235Z,28.33
2022-08-26T05:40:07.465Z,28.33
2022-08-26T05:42:38.867Z,28.35
2022-08-26T05:45:07.313Z,28.34
2022-08-26T05:47:37.899Z,28.35
2022-08-26T05:50:21.949Z,28.31
2022-08-26T05:52:56.334Z,28.35
2022-08-26T05:55:26.108Z,28.36
2022-08-26T05:57:56.400Z,28.37
2022-08-26T06:00:36.049Z,28.34
2022-08-26T06:03:31.774Z,28.40
2022-08-26T06:06:20.193Z,28.41
2022-08-26T06:09:04.499Z,28.44
2022-08-26T06:11:41.518Z,28.45
2022-08-26T06:14:19.071Z,28.23
2022-08-26T06:16:55.331Z,28.00
2022-08-26T06:19:34.528Z,27.82
2022-08-26T06:22:25.545Z,27.74
2022-08-26T06:25:20.322Z,27.56
2022-08-26T06:27:56.083Z,27.56
2022-08-26T06:30:29.429Z,27.59
2022-08-26T06:33:03.071Z,27.57
2022-08-26T06:35:40.381Z,27.51
2022-08-26T06:38:16.894Z,27.50
2022-08-26T06:40:49.209Z,27.44
2022-08-26T06:43:25.871Z,27.51
2022-08-26T06:46:17.507Z,27.46
2022-08-26T06:48:49.010Z,27.45
2022-08-26T06:51:26.162Z,27.36
2022-08-26T06:54:00.298Z,27.31
2022-08-26T06:56:44.075Z,27.16
2022-08-26T06:59:20.415Z,27.22
2022-08-26T07:01:51.594Z,27.17
2022-08-26T07:04:25.028Z,27.01
2022-08-26T07:07:04.692Z,27.03
2022-08-26T07:09:38.500Z,26.91
2022-08-26T07:12:09.639Z,26.88
2022-08-26T07:14:48.162Z,26.98
2022-08-26T07:17:20.461Z,26.94
2022-08-26T07:19:51.658Z,26.92
2022-08-26T07:22:21.834Z,26.88
2022-08-26T07:24:50.761Z,26.90
2022-08-26T07:27:18.896Z,26.84
2022-08-26T07:29:47.105Z,26.78
2022-08-26T07:32:17.809Z,26.80
2022-08-26T07:34:49.041Z,26.81
2022-08-26T07:37:18.517Z,26.77
2022-08-26T07:39:59.830Z,26.80
2022-08-26T07:42:36.142Z,26.80
2022-08-26T07:45:06.221Z,26.79
2022-08-26T07:47:34.704Z,26.79
2022-08-26T07:50:13.599Z,26.72
2022-08-26T07:52:48.851Z,26.68
2022-08-26T07:55:25.081Z,26.65
2022-08-26T07:57:58.767Z,26.70
2022-08-26T08:00:32.959Z,26.61
2022-08-26T08:03:06.408Z,26.64
2022-08-26T08:05:41.233Z,26.65
2022-08-26T08:08:27.923Z,26.63
2022-08-26T08:11:04.984Z,26.60
2022-08-26T08:13:44.926Z,26.57
2022-08-26T08:16:22.703Z,26.53
2022-08-26T08:18:59.223Z,26.44
2022-08-26T08:21:34.030Z,26.49
2022-08-26T08:24:07.551Z,26.52
2022-08-26T08:26:44.286Z,26.54
2022-08-26T08:29:25.701Z,26.58
2022-08-26T08:32:06.115Z,26.56
2022-08-26T08:34:51.793Z,26.53
2022-08-26T08:37:29.756Z,26.57
2022-08-26T08:40:12.838Z,26.54
2022-08-26T08:43:02.864Z,26.52
2022-08-26T08:45:49.875Z,26.51
2022-08-26T08:48:31.875Z,26.53
2022-08-26T08:51:08.294Z,26.58
2022-08-26T08:53:55.018Z,26.60
2022-08-26T08:56:37.822Z,26.60
2022-08-26T08:59:24.706Z,26.58
2022-08-26T09:02:18.504Z,26.60
2022-08-26T09:05:19.514Z,26.62
2022-08-26T09:08:06.815Z,26.60
2022-08-26T09:10:57.981Z,26.56
2022-08-26T09:13:32.031Z,26.58
2022-08-26T09:16:27.960Z,26.58
2022-08-26T09:19:11.268Z,26.60
2022-08-26T09:21:44.781Z,26.62
2022-08-26T09:24:24.059Z,26.64
2022-08-26T09:27:02.285Z,26.60
2022-08-26T09:29:50.449Z,26.72
2022-08-26T09:32:30.230Z,26.87
2022-08-26T09:35:23.565Z,26.95
2022-08-26T09:37:58.635Z,26.96
2022-08-26T09:40:40.796Z,26.99
2022-08-26T09:43:25.310Z,27.02
2022-08-26T09:46:15.248Z,27.01
2022-08-26T09:48:53.128Z,27.15
2022-08-26T09:51:38.678Z,27.16
2022-08-26T09:54:30.372Z,27.12
2022-08-26T09:57:26.521Z,27.17
2022-08-26T09:59:57.384Z,27.17
2022-08-26T10:02:37.442Z,27.20
2022-08-26T10:05:18.321Z,27.28
2022-08-26T10:07:54.111Z,27.31
2022-08-26T10:10:46.192Z,27.41
2022-08-26T10:13:41.204Z,27.43
2022-08-26T10:16:36.052Z,27.43
2022-08-26T10:19:29.113Z,27.49
2022-08-26T10:22:45.932Z,27.49
2022-08-26T10:25:22.634Z,27.51
2022-08-26T10:28:02.897Z,27.51
2022-08-26T10:31:14.757Z,27.44
2022-08-26T10:33:49.412Z,27.34
2022-08-26T10:37:10.507Z,27.35
2022-08-26T10:39:46.689Z,27.32
2022-08-26T10:42:26.806Z,27.20
2022-08-26T10:45:25.465Z,27.19
2022-08-26T10:48:07.374Z,27.22
2022-08-26T10:50:49.048Z,27.10
2022-08-26T10:53:26.498Z,27.10
2022-08-26T10:56:05.538Z,27.08
2022-08-26T10:59:12.754Z,27.09
2022-08-26T11:02:07.236Z,26.97
2022-08-26T11:04:44.510Z,26.93
2022-08-26T11:07:40.763Z,26.89
2022-08-26T11:10:23.053Z,26.79
2022-08-26T11:13:04.015Z,26.76
2022-08-26T11:15:44.396Z,26.76
2022-08-26T11:18:37.044Z,26.72
2022-08-26T11:21:47.765Z,26.69
2022-08-26T11:24:38.964Z,26.65
2022-08-26T11:27:38.636Z,26.64
2022-08-26T11:30:35.137Z,26.54
2022-08-26T11:33:29.810Z,26.60
2022-08-26T11:36:00.791Z,26.56
2022-08-26T11:38:46.375Z,26.50
2022-08-26T11:41:22.381Z,26.49
2022-08-26T11:43:59.586Z,26.43
2022-08-26T11:46:37.857Z,26.51
2022-08-26T11:49:09.835Z,26.53
2022-08-26T11:51:41.893Z,26.52
2022-08-26T11:54:18.057Z,26.58
2022-08-26T11:57:12.940Z,26.56
2022-08-26T11:59:43.930Z,26.63
2022-08-26T12:02:17.906Z,26.71
2022-08-26T12:04:50.824Z,26.74
2022-08-26T12:07:24.458Z,26.79
2022-08-26T12:10:00.481Z,26.92
2022-08-26T12:12:36.126Z,26.93
2022-08-26T12:15:23.412Z,26.93
2022-08-26T12:17:54.759Z,26.97
2022-08-26T12:20:46.617Z,26.89
2022-08-26T12:23:41.436Z,27.00
2022-08-26T12:26:23.355Z,26.96
2022-08-26T12:29:26.788Z,27.05
2022-08-26T12:32:15.431Z,27.13
2022-08-26T12:34:52.218Z,27.12
2022-08-26T12:37:27.621Z,27.06
2022-08-26T12:40:34.387Z,27.04
2022-08-26T12:43:15.595Z,26.97
2022-08-26T12:46:00.911Z,26.95
2022-08-26T12:48:36.271Z,26.94
2022-08-26T12:51:27.990Z,26.86
2022-08-26T12:54:03.300Z,26.81
2022-08-26T12:56:43.197Z,26.87
2022-08-26T12:59:25.381Z,26.76
2022-08-26T13:01:58.650Z,26.71
2022-08-26T13:04:41.576Z,26.69
2022-08-26T13:07:24.047Z,26.69
2022-08-26T13:10:00.984Z,26.62
2022-08-26T13:12:42.967Z,26.60
2022-08-26T13:15:22.164Z,26.61
2022-08-26T13:17:50.433Z,26.64
2022-08-26T13:20:28.088Z,26.57
2022-08-26T13:22:59.715Z,26.57
2022-08-26T13:25:36.383Z,26.50
2022-08-26T13:28:08.861Z,26.49
2022-08-26T13:30:46.172Z,26.44
2022-08-26T13:33:22.992Z,26.43
2022-08-26T13:35:58.941Z,26.53
2022-08-26T13:38:33.586Z,26.59
2022-08-26T13:41:15.593Z,26.67
2022-08-26T13:43:47.409Z,26.79
2022-08-26T13:46:23.286Z,26.88
2022-08-26T13:49:02.381Z,26.89
2022-08-26T13:51:42.003Z,26.87
2022-08-26T13:54:24.025Z,26.92
2022-08-26T13:57:02.552Z,26.89
2022-08-26T13:59:37.099Z,26.97
2022-08-26T14:02:17.489Z,27.08
2022-08-26T14:05:00.146Z,27.08
2022-08-26T14:07:44.770Z,27.09
2022-08-26T14:10:25.586Z,27.10
2022-08-26T14:12:59.605Z,27.14
2022-08-26T14:15:39.038Z,27.19
2022-08-26T14:18:27.341Z,27.17
2022-08-26T14:21:08.026Z,27.33
2022-08-26T14:23:44.901Z,27.40
2022-08-26T14:26:28.716Z,27.32
2022-08-26T14:29:12.392Z,27.33
2022-08-26T14:31:53.584Z,27.34
2022-08-26T14:34:30.288Z,27.24
2022-08-26T14:37:13.546Z,27.19
2022-08-26T14:39:50.005Z,27.25
2022-08-26T14:42:31.331Z,27.25
2022-08-26T14:45:10.268Z,27.12
2022-08-26T14:47:41.909Z,27.16
2022-08-26T14:50:23.313Z,27.19
2022-08-26T14:53:15.252Z,27.19
2022-08-26T14:55:52.099Z,27.21
2022-08-26T14:58:34.975Z,27.30
2022-08-26T15:01:11.197Z,27.18
2022-08-26T15:03:54.313Z,27.10
2022-08-26T15:06:29.677Z,27.22
2022-08-26T15:09:03.540Z,27.19
2022-08-26T15:11:34.738Z,27.16
2022-08-26T15:14:06.491Z,27.08
2022-08-26T15:16:37.826Z,27.02
2022-08-26T15:19:16.271Z,27.10
2022-08-26T15:21:49.993Z,27.00
2022-08-26T15:24:25.946Z,27.11
2022-08-26T15:26:57.194Z,26.98
2022-08-26T15:29:30.212Z,26.95
2022-08-26T15:32:10.023Z,26.95
2022-08-26T15:34:45.230Z,26.91
2022-08-26T15:37:22.170Z,26.83
2022-08-26T15:39:51.391Z,26.72
2022-08-26T15:42:25.513Z,26.71
2022-08-26T15:45:00.962Z,26.64
2022-08-26T15:47:44.430Z,26.51
2022-08-26T15:50:35.356Z,26.47
2022-08-26T15:53:05.075Z,26.47
2022-08-26T15:55:33.366Z,26.57
2022-08-26T15:58:04.625Z,26.60
2022-08-26T16:00:40.624Z,26.62
2022-08-26T16:03:23.932Z,26.68
2022-08-26T16:06:07.374Z,26.65
2022-08-26T16:08:45.281Z,26.64
2022-08-26T16:11:24.379Z,26.72
2022-08-26T16:14:08.831Z,26.74
2022-08-26T16:16:47.429Z,26.76
2022-08-26T16:19:23.797Z,26.76
2022-08-26T16:21:56.338Z,26.78
2022-08-26T16:24:36.052Z,26.76
2022-08-26T16:27:18.039Z,26.91
2022-08-26T16:29:51.534Z,27.22
2022-08-26T16:32:31.169Z,27.43
2022-08-26T16:35:10.766Z,27.54
2022-08-26T16:40:42.033Z,27.72
2022-08-26T16:43:15.758Z,27.78
2022-08-26T16:45:49.179Z,27.81
2022-08-26T16:48:25.789Z,27.84
2022-08-26T16:51:04.423Z,27.87
2022-08-26T16:53:40.321Z,27.91
2022-08-26T16:56:15.148Z,27.96
2022-08-26T16:58:54.112Z,27.98
2022-08-26T17:01:34.030Z,28.00
2022-08-26T17:04:04.912Z,28.02
2022-08-26T17:06:45.566Z,27.96
2022-08-26T17:09:19.435Z,28.06
2022-08-26T17:11:51.400Z,28.03
2022-08-26T17:14:25.076Z,28.11
2022-08-26T17:17:01.605Z,28.12
2022-08-26T17:19:41.039Z,28.12
2022-08-26T17:22:23.264Z,28.14
2022-08-26T17:24:53.796Z,28.15
2022-08-26T17:27:32.385Z,28.18
2022-08-26T17:30:05.614Z,28.19
2022-08-26T17:32:47.633Z,28.20
2022-08-26T17:35:20.374Z,28.20
2022-08-26T17:37:56.898Z,28.21
2022-08-26T17:40:35.145Z,28.22
2022-08-26T17:43:17.381Z,28.18
2022-08-26T17:45:51.030Z,28.24
2022-08-26T17:48:27.413Z,28.24
2022-08-26T17:51:11.194Z,28.26
2022-08-26T17:53:50.504Z,28.26
2022-08-26T17:56:25.489Z,28.26
2022-08-26T17:59:03.572Z,28.26
2022-08-26T18:01:39.763Z,28.28
2022-08-26T18:04:12.476Z,28.25
2022-08-26T18:06:45.191Z,28.29
2022-08-26T18:09:21.134Z,28.30
2022-08-26T18:11:54.424Z,28.31
2022-08-26T18:14:25.484Z,28.31
2022-08-26T18:17:03.777Z,28.30
2022-08-26T18:22:23.259Z,28.33
2022-08-26T18:25:06.360Z,28.33
2022-08-26T18:27:45.178Z,28.32
2022-08-26T18:30:24.436Z,28.34
2022-08-26T18:32:55.515Z,28.34
2022-08-26T18:35:33.898Z,28.34
2022-08-26T18:38:13.802Z,28.35
2022-08-26T18:40:54.917Z,28.37
2022-08-26T18:43:29.390Z,28.36
2022-08-26T18:46:12.435Z,28.33
2022-08-26T18:48:51.223Z,28.37
2022-08-26T18:51:29.671Z,28.33
2022-08-26T18:54:08.374Z,28.38
2022-08-26T18:56:43.926Z,28.38
2022-08-26T18:59:27.964Z,28.35
2022-08-26T19:02:04.780Z,28.40
2022-08-26T19:04:37.142Z,28.41
2022-08-26T19:07:15.384Z,28.41
2022-08-26T19:09:54.022Z,28.41
2022-08-26T19:12:26.955Z,28.42
2022-08-26T19:15:03.670Z,28.41
2022-08-26T19:17:37.420Z,28.38
2022-08-26T19:20:12.753Z,28.42
2022-08-26T19:22:48.801Z,28.37
2022-08-26T19:25:33.816Z,28.42
2022-08-26T19:28:12.335Z,28.42
2022-08-26T19:30:53.129Z,28.44
2022-08-26T19:33:21.770Z,28.43
2022-08-26T19:35:57.948Z,28.43
2022-08-26T19:38:31.300Z,28.44
2022-08-26T19:41:04.879Z,28.43
2022-08-26T19:43:43.545Z,28.45
2022-08-26T19:46:23.567Z,28.46
2022-08-26T19:48:56.523Z,28.47
2022-08-26T19:51:36.732Z,28.47
2022-08-26T19:54:12.543Z,28.45
2022-08-26T19:56:49.588Z,28.45
2022-08-26T19:59:25.057Z,28.47
2022-08-26T20:02:01.979Z,28.46
2022-08-26T20:04:34.448Z,28.46
2022-08-26T20:07:06.791Z,28.46
2022-08-26T20:09:38.455Z,28.42
2022-08-26T20:12:12.488Z,28.49
2022-08-26T20:14:43.841Z,28.47
2022-08-26T20:17:22.705Z,28.44
2022-08-26T20:20:28.480Z,28.49
2022-08-26T20:23:14.651Z,28.50
2022-08-26T20:25:47.092Z,28.49
2022-08-26T20:28:18.419Z,28.50
2022-08-26T20:30:57.660Z,28.50
2022-08-26T20:33:31.699Z,28.51
2022-08-26T20:36:26.986Z,28.53
2022-08-26T20:39:01.805Z,28.52
2022-08-26T20:41:35.919Z,28.53
2022-08-26T20:44:12.211Z,28.52
2022-08-26T20:46:56.628Z,28.42
2022-08-26T20:49:30.506Z,28.54
2022-08-26T20:52:06.193Z,28.52
2022-08-26T20:54:33.847Z,28.53
2022-08-26T20:57:07.153Z,28.49
2022-08-26T20:59:37.747Z,28.54
2022-08-26T21:02:16.538Z,28.54
2022-08-26T21:04:57.467Z,28.52
2022-08-26T21:07:35.775Z,28.55
2022-08-26T21:10:11.897Z,28.56
2022-08-26T21:12:47.723Z,28.54
2022-08-26T21:15:23.871Z,28.48
2022-08-26T21:17:54.625Z,28.54
2022-08-26T21:20:25.032Z,28.54
2022-08-26T21:23:13.809Z,28.54
2022-08-26T21:25:50.163Z,28.51
2022-08-26T21:28:29.051Z,28.53
2022-08-26T21:31:06.286Z,28.54
2022-08-26T21:33:42.963Z,28.57
2022-08-26T21:36:18.040Z,28.57
2022-08-26T21:38:53.307Z,28.56
2022-08-26T21:41:29.596Z,28.57
2022-08-26T21:43:59.843Z,28.55
2022-08-26T21:46:35.847Z,28.49
2022-08-26T21:49:15.930Z,28.55
2022-08-26T21:51:52.579Z,28.54
2022-08-26T21:54:28.445Z,28.58
2022-08-26T21:57:09.344Z,28.55
2022-08-26T21:59:45.990Z,28.55
2022-08-26T22:02:18.165Z,28.57
2022-08-26T22:04:57.284Z,28.56
2022-08-26T22:07:33.809Z,28.58
2022-08-26T22:10:13.334Z,28.59
2022-08-26T22:12:43.945Z,28.59
2022-08-26T22:15:18.242Z,28.57
2022-08-26T22:17:54.047Z,28.55
2022-08-26T22:20:35.748Z,28.56
2022-08-26T22:23:13.804Z,28.58
2022-08-26T22:25:41.496Z,28.59
2022-08-26T22:28:23.210Z,28.58
2022-08-26T22:30:50.874Z,28.59
2022-08-26T22:33:26.449Z,28.55
2022-08-26T22:36:06.740Z,28.58
2022-08-26T22:38:42.841Z,28.58
2022-08-26T22:41:15.937Z,28.60
2022-08-26T22:43:54.919Z,28.59
2022-08-26T22:46:27.690Z,28.59
2022-08-26T22:49:06.482Z,28.62
2022-08-26T22:51:42.258Z,28.60
2022-08-26T22:54:19.729Z,28.60
2022-08-26T22:56:54.743Z,28.62
2022-08-26T22:59:35.831Z,28.62
2022-08-26T23:02:09.564Z,28.63
2022-08-26T23:04:44.738Z,28.61
2022-08-26T23:07:20.288Z,28.62
2022-08-26T23:09:53.705Z,28.58
2022-08-26T23:12:29.370Z,28.60
2022-08-26T23:15:11.362Z,28.60
2022-08-26T23:17:55.878Z,28.63
2022-08-26T23:20:38.166Z,28.54
2022-08-26T23:23:13.543Z,28.63
2022-08-26T23:25:43.469Z,28.63
2022-08-26T23:28:27.891Z,28.64
2022-08-26T23:31:03.179Z,28.59
2022-08-26T23:33:55.497Z,28.64
2022-08-26T23:36:35.064Z,28.63
2022-08-26T23:39:15.527Z,28.61
2022-08-26T23:41:46.233Z,28.61
2022-08-26T23:44:26.791Z,28.64
2022-08-26T23:46:55.457Z,28.64
2022-08-26T23:49:34.252Z,28.63
2022-08-26T23:52:24.453Z,28.63
2022-08-26T23:54:59.543Z,28.61
2022-08-26T23:57:38.437Z,28.63
